Time;durP1;ratioP1;P1;durP2;ratioP2;P2;SDS_P1;SDS_P2;PMS_P1;PMS_P2;Temp;Humidity;BMP_temperature;BMP_pressure;BME280_temperature;BME280_humidity;BME280_pressure;Samples;Min_cycle;Max_cycle;Signal;HPM_P1;HPM_P2
2022/04/19 00:00:46;;;;;;;15.05;13.27;;;9.50;69.40;;;;;;5097791;28;20036;-81
2022/04/19 00:03:14;;;;;;;18.50;14.25;;;9.50;69.30;;;;;;5098195;28;20435;-81
2022/04/19 00:05:41;;;;;;;19.05;13.93;;;9.40;69.70;;;;;;5081283;28;20044;-80
2022/04/19 00:08:08;;;;;;;17.33;13.57;;;9.30;70.20;;;;;;5097686;28;20128;-80
2022/04/19 00:10:34;;;;;;;16.80;13.15;;;9.30;70.20;;;;;;5081080;28;20173;-81
2022/04/19 00:13:02;;;;;;;15.25;13.30;;;9.20;70.10;;;;;;5080819;28;20044;-81
2022/04/19 00:15:29;;;;;;;15.90;13.32;;;9.20;70.10;;;;;;5097512;28;20055;-81
2022/04/19 00:18:00;;;;;;;15.93;13.75;;;9.10;70.30;;;;;;5064050;28;20043;-81
2022/04/19 00:20:28;;;;;;;13.77;12.38;;;9.10;70.40;;;;;;5097329;28;20156;-81
2022/04/19 00:22:54;;;;;;;15.20;12.43;;;9.10;70.70;;;;;;5097425;28;20096;-80
2022/04/19 00:25:20;;;;;;;16.30;13.13;;;9.00;70.70;;;;;;5097290;28;20486;-81
2022/04/19 00:27:46;;;;;;;15.75;12.77;;;9.00;70.80;;;;;;5097386;28;20035;-80
2022/04/19 00:30:13;;;;;;;14.35;12.57;;;8.90;71.10;;;;;;5080314;28;20035;-80
2022/04/19 00:32:39;;;;;;;15.07;13.20;;;8.90;71.10;;;;;;5080388;28;20103;-81
2022/04/19 00:35:07;;;;;;;16.70;12.55;;;8.80;71.10;;;;;;5097456;28;20364;-80
2022/04/19 00:37:34;;;;;;;14.60;12.45;;;8.80;71.00;;;;;;5097024;28;20528;-80
2022/04/19 00:40:01;;;;;;;14.10;12.30;;;8.80;70.90;;;;;;5080317;28;20123;-81
2022/04/19 00:42:28;;;;;;;14.95;12.43;;;8.90;70.80;;;;;;5097073;28;20051;-80
2022/04/19 00:44:55;;;;;;;13.98;12.20;;;8.80;70.30;;;;;;5097307;28;20046;-81
2022/04/19 00:47:21;;;;;;;13.45;12.05;;;8.90;70.20;;;;;;5080253;28;20051;-81
2022/04/19 00:49:47;;;;;;;14.13;11.80;;;8.80;70.40;;;;;;5096926;28;20130;-80
2022/04/19 00:52:13;;;;;;;14.43;11.82;;;8.90;70.30;;;;;;5079897;28;20071;-81
2022/04/19 00:54:40;;;;;;;14.43;11.77;;;8.80;70.10;;;;;;5096752;28;20119;-80
2022/04/19 00:57:06;;;;;;;14.93;11.88;;;8.80;70.30;;;;;;5080172;28;20044;-80
2022/04/19 00:59:33;;;;;;;13.38;11.27;;;8.80;70.30;;;;;;5079799;28;20036;-81
2022/04/19 01:01:59;;;;;;;14.68;11.60;;;8.90;70.40;;;;;;5096927;28;20066;-81
2022/04/19 01:04:25;;;;;;;13.90;11.00;;;8.80;70.30;;;;;;5063111;28;20038;-81
2022/04/19 01:06:52;;;;;;;14.38;11.63;;;8.80;70.30;;;;;;5079769;28;20035;-81
2022/04/19 01:09:18;;;;;;;14.65;11.93;;;8.70;70.50;;;;;;5062884;28;20044;-81
2022/04/19 01:14:28;;;;;;;13.75;12.13;;;8.70;71.10;;;;;;5096563;28;20047;-81
2022/04/19 01:16:57;;;;;;;12.95;11.30;;;8.60;71.20;;;;;;5096334;28;20634;-80
2022/04/19 01:19:24;;;;;;;13.68;10.88;;;8.60;71.10;;;;;;5096010;28;20083;-81
2022/04/19 01:21:57;;;;;;;12.98;11.05;;;8.60;71.30;;;;;;5096849;28;20043;-82
2022/04/19 01:24:26;;;;;;;12.85;11.20;;;8.50;71.30;;;;;;5096382;28;20075;-80
2022/04/19 01:26:57;;;;;;;11.98;10.68;;;8.50;71.50;;;;;;5096451;28;20036;-79
2022/04/19 01:29:24;;;;;;;12.50;10.73;;;8.60;71.80;;;;;;5079421;28;20039;-81
2022/04/19 01:31:51;;;;;;;12.80;11.00;;;8.50;71.50;;;;;;5096271;28;20123;-80
2022/04/19 01:34:20;;;;;;;12.48;10.27;;;8.50;71.70;;;;;;5079481;28;20051;-80
2022/04/19 01:36:46;;;;;;;12.20;10.80;;;8.50;71.90;;;;;;5095910;28;20055;-81
2022/04/19 01:39:12;;;;;;;12.52;10.35;;;8.50;71.60;;;;;;5095846;28;20031;-81
2022/04/19 01:41:39;;;;;;;12.20;9.82;;;8.50;71.90;;;;;;5095987;28;20039;-80
2022/04/19 01:44:10;;;;;;;12.93;10.85;;;8.50;71.80;;;;;;5096162;28;20437;-80
2022/04/19 01:46:35;;;;;;;12.00;10.80;;;8.40;71.70;;;;;;5079247;28;20036;-81
2022/04/19 01:49:03;;;;;;;13.02;10.85;;;8.30;72.00;;;;;;5095745;28;20053;-81
2022/04/19 01:51:29;;;;;;;15.23;11.52;;;8.30;72.20;;;;;;5095821;28;20051;-81
2022/04/19 01:53:55;;;;;;;14.25;11.48;;;8.30;72.30;;;;;;5078934;28;20475;-81
2022/04/19 01:56:21;;;;;;;12.48;10.98;;;8.20;72.40;;;;;;5095676;28;20096;-82
2022/04/19 01:58:48;;;;;;;12.55;10.90;;;8.20;72.40;;;;;;5078908;28;20082;-81
2022/04/19 02:01:14;;;;;;;16.90;12.05;;;8.10;72.60;;;;;;5095714;28;20074;-80
2022/04/19 02:03:41;;;;;;;12.93;11.00;;;8.10;72.60;;;;;;5079061;28;20395;-81
2022/04/19 02:06:11;;;;;;;12.90;10.90;;;8.10;72.70;;;;;;5095290;28;20040;-81
2022/04/19 02:08:40;;;;;;;14.38;11.00;;;8.10;72.60;;;;;;5079030;28;20044;-81
2022/04/19 02:11:06;;;;;;;12.85;11.55;;;8.10;72.50;;;;;;5061930;28;20047;-81
2022/04/19 02:13:32;;;;;;;12.93;10.52;;;8.10;72.60;;;;;;5078806;28;20040;-81
2022/04/19 02:15:58;;;;;;;12.02;10.75;;;8.10;72.70;;;;;;5095350;28;20479;-81
2022/04/19 02:18:25;;;;;;;12.82;11.07;;;8.00;72.70;;;;;;5078535;28;20040;-81
2022/04/19 02:20:51;;;;;;;11.98;10.57;;;8.00;72.80;;;;;;5095516;28;20056;-81
2022/04/19 02:23:17;;;;;;;12.45;11.00;;;8.00;72.50;;;;;;5078616;28;20070;-81
2022/04/19 02:25:42;;;;;;;11.73;10.25;;;8.00;72.60;;;;;;5061912;28;20098;-80
2022/04/19 02:28:10;;;;;;;11.43;10.15;;;7.90;72.90;;;;;;5078792;28;20039;-80
2022/04/19 02:30:36;;;;;;;14.23;11.45;;;7.90;72.80;;;;;;5096104;28;20418;-81
2022/04/19 02:33:02;;;;;;;13.23;10.35;;;8.00;72.80;;;;;;5078937;28;20047;-81
2022/04/19 02:35:28;;;;;;;15.50;12.10;;;8.00;72.90;;;;;;5095498;28;20553;-81
2022/04/19 02:37:56;;;;;;;14.40;11.32;;;8.00;72.90;;;;;;5095887;28;20062;-82
2022/04/19 02:40:23;;;;;;;11.65;9.73;;;8.00;72.70;;;;;;5078827;28;20127;-81
2022/04/19 02:42:54;;;;;;;11.93;10.23;;;7.90;72.60;;;;;;5095282;28;20039;-81
2022/04/19 02:45:20;;;;;;;13.18;11.35;;;7.90;72.70;;;;;;5095504;28;20096;-80
2022/04/19 02:47:46;;;;;;;15.73;11.27;;;7.90;73.00;;;;;;5078791;28;20110;-81
2022/04/19 02:50:12;;;;;;;24.65;12.27;;;7.80;72.70;;;;;;5095425;28;20422;-82
2022/04/19 02:52:38;;;;;;;13.00;11.00;;;7.90;72.70;;;;;;5078438;28;20040;-81
2022/04/19 02:55:04;;;;;;;13.95;10.85;;;7.80;72.40;;;;;;5078434;28;20112;-81
2022/04/19 02:57:29;;;;;;;13.82;10.77;;;7.80;72.50;;;;;;5095129;28;20455;-81
2022/04/19 02:59:55;;;;;;;14.25;10.40;;;7.70;72.60;;;;;;5095471;28;20048;-79
2022/04/19 03:02:21;;;;;;;13.32;10.95;;;7.70;72.90;;;;;;5095236;28;20127;-81
2022/04/19 03:04:47;;;;;;;12.35;9.90;;;7.80;73.00;;;;;;5095079;28;20122;-81
2022/04/19 03:07:15;;;;;;;16.50;10.80;;;7.70;73.10;;;;;;5078489;28;20407;-80
2022/04/19 03:09:43;;;;;;;14.30;11.95;;;7.70;73.10;;;;;;5078941;28;20040;-81
2022/04/19 03:12:14;;;;;;;14.90;11.90;;;7.70;72.90;;;;;;5095281;28;20122;-82
2022/04/19 03:14:41;;;;;;;12.90;11.15;;;7.60;72.60;;;;;;5095392;28;20110;-81
2022/04/19 03:17:07;;;;;;;12.90;10.45;;;7.60;72.60;;;;;;5079993;28;20071;-82
2022/04/19 03:19:33;;;;;;;12.77;10.50;;;7.60;72.60;;;;;;5082164;28;20369;-80
2022/04/19 03:21:59;;;;;;;14.07;10.85;;;7.50;72.70;;;;;;5082436;28;20048;-81
2022/04/19 03:29:53;;;;;;;13.18;10.40;;;7.50;73.40;;;;;;5098967;28;20484;-80
2022/04/19 03:32:23;;;;;;;14.30;10.40;;;7.50;73.70;;;;;;5081927;28;20044;-81
2022/04/19 03:34:50;;;;;;;12.85;10.90;;;7.50;73.30;;;;;;5081604;28;20035;-80
2022/04/19 03:37:17;;;;;;;12.25;10.90;;;7.50;73.40;;;;;;5098450;28;20048;-80
2022/04/19 03:39:43;;;;;;;14.57;11.43;;;7.40;73.50;;;;;;5098511;28;20153;-80
2022/04/19 03:42:09;;;;;;;15.77;10.93;;;7.40;73.50;;;;;;5081737;28;20126;-81
2022/04/19 03:44:35;;;;;;;13.00;11.32;;;7.50;73.60;;;;;;5081609;28;20036;-80
2022/04/19 03:47:09;;;;;;;13.25;10.77;;;7.40;73.50;;;;;;5081549;28;20384;-81
2022/04/19 03:49:39;;;;;;;12.13;9.82;;;7.40;73.70;;;;;;5098219;28;20043;-80
2022/04/19 03:52:06;;;;;;;12.68;11.00;;;7.30;73.60;;;;;;5098347;28;20050;-81
2022/04/19 03:54:34;;;;;;;13.30;11.05;;;7.30;73.70;;;;;;5081798;28;20418;-81
2022/04/19 03:57:07;;;;;;;13.45;10.60;;;7.30;73.90;;;;;;5081512;28;20039;-81
2022/04/19 03:59:35;;;;;;;16.65;11.30;;;7.20;73.80;;;;;;5081643;28;20043;-81
2022/04/19 04:02:02;;;;;;;13.13;10.02;;;7.10;74.00;;;;;;5098096;28;20046;-80
2022/04/19 04:04:30;;;;;;;15.40;10.82;;;7.10;74.10;;;;;;5098488;28;20365;-81
2022/04/19 04:07:00;;;;;;;13.55;11.63;;;7.10;74.00;;;;;;5081598;28;20039;-81
2022/04/19 04:09:32;;;;;;;13.00;10.75;;;7.10;74.40;;;;;;5081415;28;20130;-81
2022/04/19 04:12:02;;;;;;;15.48;12.20;;;7.10;74.30;;;;;;5098315;28;20035;-80
2022/04/19 04:14:29;;;;;;;14.90;11.88;;;7.10;74.00;;;;;;5081957;28;20077;-80
2022/04/19 04:16:55;;;;;;;15.05;11.95;;;7.10;74.00;;;;;;5081027;28;20093;-81
2022/04/19 04:19:20;;;;;;;14.98;12.88;;;7.00;73.90;;;;;;5097481;28;20055;-80
2022/04/19 04:21:46;;;;;;;15.35;11.55;;;7.00;74.00;;;;;;5080873;28;20039;-80
2022/04/19 04:24:12;;;;;;;15.45;12.00;;;7.00;74.30;;;;;;5097468;28;20064;-81
2022/04/19 04:26:38;;;;;;;13.88;11.35;;;7.00;74.20;;;;;;5097436;28;20065;-80
2022/04/19 04:29:03;;;;;;;15.50;12.75;;;7.00;74.30;;;;;;5097189;28;20044;-80
2022/04/19 04:31:29;;;;;;;15.95;11.48;;;7.00;74.30;;;;;;5064439;28;20040;-81
2022/04/19 04:33:55;;;;;;;16.25;11.65;;;7.00;74.20;;;;;;5080819;28;20036;-79
2022/04/19 04:36:20;;;;;;;18.20;13.18;;;7.00;74.30;;;;;;5097733;28;20428;-80
2022/04/19 04:38:46;;;;;;;15.00;12.80;;;7.00;74.40;;;;;;5063981;28;20039;-79
2022/04/19 04:41:12;;;;;;;16.15;11.52;;;7.00;74.20;;;;;;5097513;28;20500;-81
2022/04/19 04:43:39;;;;;;;15.30;12.10;;;6.90;74.50;;;;;;5064279;28;20475;-81
2022/04/19 04:51:36;;;;;;;15.63;12.40;;;7.00;75.10;;;;;;5083091;28;20134;-82
2022/04/19 04:54:02;;;;;;;14.27;11.10;;;6.90;75.10;;;;;;5097610;28;20070;-80
2022/04/19 04:56:28;;;;;;;17.48;12.48;;;6.90;75.00;;;;;;5097161;28;20122;-81
2022/04/19 04:58:54;;;;;;;16.30;12.13;;;6.90;74.70;;;;;;5080541;28;20083;-80
2022/04/19 05:01:22;;;;;;;18.95;12.88;;;6.90;74.80;;;;;;5081053;28;20128;-80
2022/04/19 05:03:48;;;;;;;17.20;12.00;;;6.90;74.60;;;;;;5098757;28;20527;-77
2022/04/19 05:06:14;;;;;;;14.15;12.40;;;7.00;74.80;;;;;;5098446;28;20051;-80
2022/04/19 05:08:39;;;;;;;17.42;12.00;;;7.00;74.60;;;;;;5082629;28;20054;-80
2022/04/19 05:11:05;;;;;;;17.15;11.77;;;7.00;74.80;;;;;;5099228;28;20368;-78
2022/04/19 05:13:31;;;;;;;19.50;13.13;;;7.00;74.90;;;;;;5065692;28;20065;-80
2022/04/19 05:16:00;;;;;;;18.17;12.95;;;7.00;75.00;;;;;;5080965;28;20050;-79
2022/04/19 05:18:26;;;;;;;13.57;12.02;;;7.00;75.50;;;;;;5081806;28;20373;-80
2022/04/19 05:20:52;;;;;;;18.02;12.80;;;7.00;75.50;;;;;;5097179;28;20047;-81
2022/04/19 05:23:19;;;;;;;15.02;11.90;;;7.10;75.60;;;;;;5080238;28;20127;-79
2022/04/19 05:25:44;;;;;;;14.35;11.05;;;7.10;75.50;;;;;;5096775;28;20036;-81
2022/04/19 05:28:10;;;;;;;15.75;12.63;;;7.10;76.00;;;;;;5096752;28;20404;-81
2022/04/19 05:30:36;;;;;;;17.73;13.20;;;7.20;75.90;;;;;;5096806;28;20099;-80
2022/04/19 05:33:02;;;;;;;14.80;12.23;;;7.20;75.70;;;;;;5063047;28;20469;-81
2022/04/19 05:35:28;;;;;;;16.50;12.60;;;7.30;75.70;;;;;;5079727;28;20609;-80
2022/04/19 05:37:55;;;;;;;14.50;12.07;;;7.40;75.60;;;;;;5079568;28;20036;-80
2022/04/19 05:40:22;;;;;;;17.52;13.27;;;7.40;76.40;;;;;;5095512;28;20040;-80
2022/04/19 05:42:48;;;;;;;16.80;12.60;;;7.50;76.20;;;;;;5079700;28;20039;-81
2022/04/19 05:45:13;;;;;;;16.90;11.40;;;7.50;76.40;;;;;;5079286;28;20043;-79
2022/04/19 05:47:39;;;;;;;16.70;11.55;;;7.60;76.40;;;;;;5079114;28;20047;-78
2022/04/19 05:50:05;;;;;;;14.02;11.40;;;7.60;76.50;;;;;;5062207;28;20049;-80
2022/04/19 05:52:31;;;;;;;16.70;12.23;;;7.70;76.50;;;;;;5095599;28;20249;-81
2022/04/19 05:54:57;;;;;;;13.90;10.20;;;7.80;76.70;;;;;;5078721;28;20057;-81
2022/04/19 05:57:22;;;;;;;17.00;11.40;;;7.90;76.50;;;;;;5078811;28;20051;-80
2022/04/19 05:59:48;;;;;;;12.27;9.63;;;8.00;76.90;;;;;;5078783;28;20031;-81
2022/04/19 06:04:59;;;;;;;11.43;8.52;;;8.20;76.90;;;;;;5095473;28;20077;-81
2022/04/19 06:07:29;;;;;;;13.10;10.30;;;8.30;77.20;;;;;;5078543;28;20526;-82
2022/04/19 06:09:56;;;;;;;15.30;11.25;;;8.40;77.10;;;;;;5095735;28;20079;-79
2022/04/19 06:12:21;;;;;;;14.20;11.02;;;8.50;76.90;;;;;;5095371;28;20040;-82
2022/04/19 06:14:47;;;;;;;10.15;8.73;;;8.60;76.70;;;;;;5078388;28;20092;-82
2022/04/19 06:17:17;;;;;;;14.52;10.27;;;8.70;76.50;;;;;;5061890;28;20039;-81
2022/04/19 06:19:44;;;;;;;14.63;11.88;;;8.80;76.80;;;;;;5095081;28;20055;-81
2022/04/19 06:22:10;;;;;;;11.70;9.85;;;8.90;76.60;;;;;;5078733;28;20079;-80
2022/04/19 06:24:36;;;;;;;13.38;10.43;;;9.00;76.20;;;;;;5095529;28;20385;-79
2022/04/19 06:27:03;;;;;;;16.00;10.85;;;9.10;76.30;;;;;;5078516;28;20108;-79
2022/04/19 06:29:28;;;;;;;13.50;10.75;;;9.30;76.30;;;;;;5095150;28;20036;-81
2022/04/19 06:31:54;;;;;;;14.13;10.95;;;9.30;76.00;;;;;;5078385;28;20399;-82
2022/04/19 06:34:20;;;;;;;11.93;8.77;;;9.40;76.00;;;;;;5095113;28;20066;-81
2022/04/19 06:36:46;;;;;;;12.40;9.75;;;9.50;76.20;;;;;;5095116;28;20079;-81
2022/04/19 06:39:12;;;;;;;13.25;10.30;;;9.60;75.80;;;;;;5095068;28;20047;-80
2022/04/19 06:41:37;;;;;;;13.10;9.40;;;9.70;75.60;;;;;;5078356;28;20107;-82
2022/04/19 06:44:05;;;;;;;14.40;10.18;;;9.80;75.30;;;;;;5078184;28;20036;-82
2022/04/19 06:46:31;;;;;;;12.88;9.25;;;10.00;75.30;;;;;;5061816;28;20043;-79
2022/04/19 06:48:58;;;;;;;12.40;9.32;;;10.00;75.30;;;;;;5078310;28;20122;-81
2022/04/19 06:51:25;;;;;;;13.27;9.98;;;10.10;75.00;;;;;;5079081;28;20040;-79
2022/04/19 06:53:51;;;;;;;15.20;10.35;;;10.20;74.80;;;;;;5099335;28;20048;-81
2022/04/19 06:56:18;;;;;;;13.02;10.15;;;10.30;74.70;;;;;;5082103;28;20514;-78
2022/04/19 06:58:45;;;;;;;14.98;9.98;;;10.40;74.80;;;;;;5065572;28;20044;-81
2022/04/19 07:01:11;;;;;;;14.38;10.48;;;10.50;74.70;;;;;;5099027;28;20040;-80
2022/04/19 07:03:37;;;;;;;14.07;10.05;;;10.60;74.50;;;;;;5082367;28;20039;-79
2022/04/19 07:06:05;;;;;;;12.70;9.27;;;10.70;74.30;;;;;;5082425;28;20368;-79
2022/04/19 07:08:31;;;;;;;13.57;10.07;;;10.80;74.00;;;;;;5099088;28;20043;-80
2022/04/19 07:10:57;;;;;;;13.57;9.30;;;10.90;73.70;;;;;;5082292;28;20083;-80
2022/04/19 07:13:24;;;;;;;15.60;10.80;;;11.00;73.70;;;;;;5081938;28;20047;-80
2022/04/19 07:15:50;;;;;;;13.02;9.50;;;11.10;73.40;;;;;;5098509;28;20043;-80
2022/04/19 07:18:17;;;;;;;12.50;9.55;;;11.10;73.20;;;;;;5098554;28;20044;-80
2022/04/19 07:28:56;;;;;;;13.95;10.02;;;11.60;72.50;;;;;;5084278;28;20082;-80
2022/04/19 07:31:22;;;;;;;14.45;9.85;;;11.70;72.30;;;;;;5081508;28;20085;-80
2022/04/19 07:33:48;;;;;;;14.45;9.75;;;11.80;72.00;;;;;;5081627;28;20075;-81
2022/04/19 07:36:14;;;;;;;12.98;9.32;;;11.90;71.70;;;;;;5098429;28;20039;-81
2022/04/19 07:38:40;;;;;;;14.40;9.27;;;12.00;71.40;;;;;;5098390;28;20385;-79
2022/04/19 07:41:06;;;;;;;13.05;9.85;;;12.20;69.30;;;;;;5065092;28;20398;-80
2022/04/19 07:43:32;;;;;;;12.90;9.38;;;12.30;66.60;;;;;;5081495;28;20032;-81
2022/04/19 07:45:58;;;;;;;10.68;7.93;;;12.50;67.60;;;;;;5081243;28;20042;-81
2022/04/19 07:48:24;;;;;;;13.70;9.40;;;12.60;67.60;;;;;;5098407;28;20130;-80
2022/04/19 07:50:50;;;;;;;14.18;10.13;;;12.70;67.70;;;;;;5080891;28;20042;-80
2022/04/19 07:53:16;;;;;;;12.38;8.65;;;12.80;67.50;;;;;;5098209;28;20039;-80
2022/04/19 07:55:42;;;;;;;12.90;8.88;;;13.00;67.60;;;;;;5080918;28;20040;-80
2022/04/19 07:58:08;;;;;;;13.10;9.32;;;13.00;67.60;;;;;;5080713;28;20043;-80
2022/04/19 08:00:34;;;;;;;15.65;9.63;;;13.10;67.60;;;;;;5081197;28;20039;-80
2022/04/19 08:02:59;;;;;;;13.20;9.40;;;13.20;67.40;;;;;;5096944;28;20188;-79
2022/04/19 08:05:27;;;;;;;14.35;9.35;;;13.30;67.10;;;;;;5097953;28;20043;-80
2022/04/19 08:07:53;;;;;;;11.60;9.00;;;13.40;67.10;;;;;;5080844;28;20046;-80
2022/04/19 08:10:19;;;;;;;13.23;9.40;;;13.50;66.80;;;;;;5097555;28;20039;-81
2022/04/19 08:12:45;;;;;;;12.82;9.15;;;13.60;66.60;;;;;;5097624;28;20046;-80
2022/04/19 08:15:12;;;;;;;11.57;8.07;;;13.70;66.60;;;;;;5097449;28;20035;-79
2022/04/19 08:17:38;;;;;;;14.57;8.45;;;13.80;66.20;;;;;;5080765;28;20384;-81
2022/04/19 08:20:07;;;;;;;11.90;8.13;;;14.00;65.60;;;;;;5097317;28;20054;-80
2022/04/19 08:22:33;;;;;;;11.65;8.55;;;14.00;64.90;;;;;;5080459;28;20085;-80
2022/04/19 08:25:00;;;;;;;16.17;8.65;;;14.20;65.40;;;;;;5080198;28;20040;-81
2022/04/19 08:27:26;;;;;;;11.75;8.48;;;14.30;64.70;;;;;;5097553;28;20040;-80
2022/04/19 08:29:52;;;;;;;13.23;7.82;;;14.40;64.40;;;;;;5097262;28;20039;-81
2022/04/19 08:32:17;;;;;;;10.57;7.70;;;14.50;64.30;;;;;;5080371;28;20062;-81
2022/04/19 08:34:46;;;;;;;10.23;7.82;;;14.60;63.80;;;;;;5080629;28;20080;-80
2022/04/19 08:37:12;;;;;;;10.40;7.05;;;14.70;63.40;;;;;;5097065;28;20047;-80
2022/04/19 08:39:38;;;;;;;9.98;7.03;;;14.80;63.00;;;;;;5080216;28;20441;-81
2022/04/19 08:42:08;;;;;;;9.60;6.85;;;14.90;62.40;;;;;;5096940;28;20039;-80
2022/04/19 08:44:40;;;;;;;8.57;6.18;;;15.00;62.30;;;;;;5080850;28;20094;-81
2022/04/19 08:47:06;;;;;;;10.50;5.82;;;15.00;60.90;;;;;;5064508;28;20044;-80
2022/04/19 08:49:41;;;;;;;10.00;5.38;;;15.10;59.60;;;;;;5080127;28;20051;-80
2022/04/19 08:52:08;;;;;;;8.52;5.78;;;15.20;59.80;;;;;;5096758;28;20048;-80
2022/04/19 08:57:30;;;;;;;7.63;5.07;;;15.50;58.80;;;;;;5096672;28;20078;-81
2022/04/19 08:59:57;;;;;;;8.63;5.35;;;15.60;58.60;;;;;;5081651;28;20040;-80
2022/04/19 09:02:25;;;;;;;7.60;4.80;;;15.70;56.90;;;;;;5079888;28;20047;-80
2022/04/19 09:04:52;;;;;;;7.63;5.05;;;15.70;55.20;;;;;;5096479;28;20172;-81
2022/04/19 09:07:18;;;;;;;9.68;5.60;;;15.80;55.70;;;;;;5079703;28;20044;-81
2022/04/19 09:10:00;;;;;;;6.80;5.38;;;15.90;56.00;;;;;;5096558;28;20050;-80
2022/04/19 09:12:27;;;;;;;8.93;4.35;;;16.00;55.50;;;;;;5096829;28;20043;-80
2022/04/19 09:15:03;;;;;;;6.60;3.95;;;16.10;56.20;;;;;;5079549;28;20035;-80
2022/04/19 09:17:34;;;;;;;5.97;4.22;;;16.30;55.80;;;;;;5079789;28;20043;-80
2022/04/19 09:20:15;;;;;;;6.15;4.53;;;16.40;54.60;;;;;;5096185;28;20059;-79
2022/04/19 09:22:45;;;;;;;9.00;4.82;;;16.50;52.10;;;;;;5096617;28;20126;-79
2022/04/19 09:25:25;;;;;;;8.73;5.30;;;16.60;53.50;;;;;;5096096;28;20479;-81
2022/04/19 09:27:52;;;;;;;7.38;4.57;;;16.70;53.70;;;;;;5096185;28;20116;-81
2022/04/19 09:30:28;;;;;;;5.88;4.38;;;16.80;53.60;;;;;;5096189;28;20089;-81
2022/04/19 09:33:09;;;;;;;5.88;4.07;;;16.90;53.80;;;;;;5096342;28;20039;-81
2022/04/19 09:35:58;;;;;;;5.97;4.57;;;17.00;54.90;;;;;;5079076;28;20047;-82
2022/04/19 09:38:49;;;;;;;7.80;4.85;;;17.20;54.10;;;;;;5096129;28;20515;-81
2022/04/19 09:41:28;;;;;;;6.97;4.25;;;17.40;53.30;;;;;;5095913;28;20068;-80
2022/04/19 09:44:07;;;;;;;7.55;5.15;;;17.50;52.30;;;;;;5095754;28;20088;-80
2022/04/19 09:46:33;;;;;;;9.20;5.15;;;17.60;51.60;;;;;;5095819;28;20042;-81
2022/04/19 09:48:59;;;;;;;6.05;3.95;;;17.80;51.90;;;;;;5096008;28;20039;-81
2022/04/19 09:51:33;;;;;;;6.20;4.15;;;17.90;50.80;;;;;;5095857;28;20399;-81
2022/04/19 09:53:59;;;;;;;7.85;3.97;;;18.00;51.90;;;;;;5062270;28;20077;-81
2022/04/19 09:56:34;;;;;;;5.57;4.43;;;18.10;51.50;;;;;;5095529;28;20071;-80
2022/04/19 09:59:02;;;;;;;7.43;3.75;;;18.20;50.60;;;;;;5078843;28;20043;-82
2022/04/19 10:09:31;;;;;;;5.28;3.08;;;18.50;48.90;;;;;;5095361;28;20051;-80
2022/04/19 10:11:58;;;;;;;5.25;3.50;;;18.50;47.50;;;;;;5078786;28;20046;-81
2022/04/19 10:14:31;;;;;;;5.82;3.63;;;18.60;49.30;;;;;;5095630;28;20134;-80
2022/04/19 10:16:58;;;;;;;3.35;2.00;;;18.80;51.10;;;;;;5095239;28;20043;-82
2022/04/19 10:19:24;;;;;;;3.78;2.05;;;18.80;48.50;;;;;;5075160;28;20051;-81
2022/04/19 10:21:52;;;;;;;2.55;1.20;;;18.90;48.80;;;;;;5092205;28;20051;-80
2022/04/19 10:24:19;;;;;;;1.80;1.52;;;19.00;48.90;;;;;;5091890;28;20042;-81
2022/04/19 10:26:51;;;;;;;2.88;1.70;;;19.00;47.20;;;;;;5091500;28;20399;-82
2022/04/19 10:29:30;;;;;;;3.63;2.00;;;19.10;47.50;;;;;;5075642;28;20396;-81
2022/04/19 10:32:06;;;;;;;2.47;1.60;;;19.10;45.70;;;;;;5075004;28;20066;-82
2022/04/19 10:34:36;;;;;;;2.70;1.77;;;19.20;46.70;;;;;;5058500;28;20036;-81
2022/04/19 10:37:21;;;;;;;2.00;1.15;;;19.30;46.20;;;;;;5058339;28;20036;-81
2022/04/19 10:39:59;;;;;;;3.10;2.00;;;19.40;44.40;;;;;;5075074;28;20044;-80
2022/04/19 10:42:32;;;;;;;2.20;1.40;;;19.30;44.40;;;;;;5076092;28;20040;-81
2022/04/19 10:45:18;;;;;;;2.92;1.33;;;19.40;44.40;;;;;;5074712;28;20476;-78
2022/04/19 10:47:53;;;;;;;2.33;1.30;;;19.50;42.90;;;;;;5090941;28;20048;-81
2022/04/19 10:50:28;;;;;;;1.92;1.17;;;19.60;42.80;;;;;;5091665;28;20059;-80
2022/04/19 10:53:19;;;;;;;1.88;1.50;;;19.70;40.50;;;;;;5091565;28;20051;-81
2022/04/19 10:55:58;;;;;;;3.30;1.40;;;19.70;40.90;;;;;;5090027;28;20056;-81
2022/04/19 10:58:41;;;;;;;3.45;1.50;;;19.70;40.90;;;;;;5074627;28;20051;-79
2022/04/19 11:01:30;;;;;;;4.00;1.40;;;19.80;41.10;;;;;;5091468;28;20149;-82
2022/04/19 11:03:56;;;;;;;3.17;1.40;;;19.90;40.90;;;;;;5074794;28;20036;-78
2022/04/19 11:06:33;;;;;;;1.77;1.50;;;19.90;40.60;;;;;;5091375;28;20071;-81
2022/04/19 11:09:28;;;;;;;3.45;1.77;;;20.00;41.50;;;;;;5091483;28;20097;-81
2022/04/19 11:12:07;;;;;;;3.03;2.08;;;20.10;41.50;;;;;;5091473;28;20047;-81
2022/04/19 11:14:40;;;;;;;3.22;1.67;;;20.20;41.70;;;;;;5091429;28;20054;-81
2022/04/19 11:17:21;;;;;;;3.53;1.73;;;20.20;41.20;;;;;;5091512;28;20032;-80
2022/04/19 11:20:05;;;;;;;2.70;1.80;;;20.30;42.10;;;;;;5082922;28;20078;-79
2022/04/19 11:22:46;;;;;;;2.22;1.50;;;20.40;40.80;;;;;;5094036;28;20548;-82
2022/04/19 11:25:12;;;;;;;3.97;1.38;;;20.50;39.70;;;;;;5095129;28;20078;-80
2022/04/19 11:27:53;;;;;;;3.85;1.60;;;20.50;39.60;;;;;;5094768;28;20050;-83
2022/04/19 11:30:20;;;;;;;2.53;1.80;;;20.50;37.70;;;;;;5111555;28;20084;-79
2022/04/19 11:32:50;;;;;;;3.58;1.45;;;20.60;40.30;;;;;;5111878;28;20039;-81
2022/04/19 11:35:17;;;;;;;3.35;2.17;;;20.60;40.40;;;;;;5094578;28;20086;-81
2022/04/19 11:37:44;;;;;;;3.08;1.60;;;20.70;40.60;;;;;;5112863;28;20092;-81
2022/04/19 11:48:56;;;;;;;2.20;2.00;;;20.80;40.00;;;;;;5115147;28;20148;-81
2022/04/19 11:51:21;;;;;;;2.70;2.05;;;20.60;38.00;;;;;;5114966;28;20084;-82
2022/04/19 11:53:49;;;;;;;3.13;1.90;;;20.80;40.50;;;;;;5097944;28;20086;-79
2022/04/19 11:56:16;;;;;;;2.20;1.70;;;20.70;39.60;;;;;;5115231;28;20039;-83
2022/04/19 11:58:47;;;;;;;2.88;2.00;;;20.70;39.10;;;;;;5098260;28;20046;-79
2022/04/19 12:01:14;;;;;;;2.78;2.00;;;20.80;40.60;;;;;;5098036;28;20039;-80
2022/04/19 12:03:41;;;;;;;2.20;2.00;;;20.90;41.60;;;;;;5097729;28;20065;-79
2022/04/19 12:06:11;;;;;;;2.67;1.67;;;21.00;42.20;;;;;;5080851;28;20122;-81
2022/04/19 12:08:40;;;;;;;4.63;1.73;;;21.10;41.30;;;;;;5097783;28;20039;-82
2022/04/19 12:11:08;;;;;;;4.32;2.42;;;21.20;41.50;;;;;;5114725;28;20046;-82
2022/04/19 12:13:35;;;;;;;3.45;2.17;;;21.20;39.80;;;;;;5097749;28;20130;-80
2022/04/19 12:16:03;;;;;;;3.05;1.60;;;21.30;40.60;;;;;;5097818;28;20142;-82
2022/04/19 12:18:35;;;;;;;3.72;2.20;;;21.40;39.30;;;;;;5114527;28;20095;-80
2022/04/19 12:21:02;;;;;;;2.53;1.90;;;21.40;39.40;;;;;;5114489;28;20500;-81
2022/04/19 12:23:28;;;;;;;2.90;2.00;;;21.40;39.70;;;;;;5114440;28;20044;-81
2022/04/19 12:26:11;;;;;;;3.13;2.30;;;21.40;38.90;;;;;;5114368;28;20036;-80
2022/04/19 12:28:43;;;;;;;5.13;2.53;;;21.60;40.00;;;;;;5097349;28;20075;-82
2022/04/19 12:31:34;;;;;;;2.47;2.10;;;21.60;38.20;;;;;;5114676;28;20407;-79
2022/04/19 12:34:01;;;;;;;2.80;2.20;;;21.60;38.70;;;;;;5114221;28;20035;-81
2022/04/19 12:36:28;;;;;;;3.35;2.22;;;21.70;39.60;;;;;;5080237;28;20044;-83
2022/04/19 12:39:04;;;;;;;2.38;1.92;;;21.80;39.90;;;;;;5114138;28;20092;-80
2022/04/19 12:41:43;;;;;;;3.35;2.00;;;21.70;36.70;;;;;;5080527;28;20043;-81
2022/04/19 12:44:13;;;;;;;3.92;2.55;;;21.90;37.80;;;;;;5114333;28;20046;-81
2022/04/19 12:46:50;;;;;;;2.88;2.08;;;22.00;39.50;;;;;;5114348;28;20035;-81
2022/04/19 12:49:46;;;;;;;4.53;2.50;;;22.10;39.30;;;;;;5096754;28;20039;-80
2022/04/19 12:52:14;;;;;;;3.58;2.00;;;22.20;39.50;;;;;;5095889;28;20047;-82
2022/04/19 12:54:43;;;;;;;3.90;2.58;;;22.10;38.60;;;;;;5113880;28;20095;-80
2022/04/19 12:57:22;;;;;;;4.57;2.45;;;22.10;37.40;;;;;;5097478;28;20412;-80
2022/04/19 12:59:47;;;;;;;4.00;2.30;;;22.10;38.60;;;;;;5114136;28;20515;-79
2022/04/19 13:02:13;;;;;;;3.80;1.92;;;22.10;38.90;;;;;;5113978;28;20043;-81
2022/04/19 13:04:39;;;;;;;3.97;2.47;;;22.30;39.20;;;;;;5079967;28;20101;-82
2022/04/19 13:12:54;;;;;;;2.85;2.00;;;22.40;39.10;;;;;;5077828;28;20561;-80
2022/04/19 13:15:20;;;;;;;4.72;2.60;;;22.60;39.10;;;;;;5096410;28;20051;-81
2022/04/19 13:17:45;;;;;;;2.53;2.20;;;22.90;39.30;;;;;;5113430;28;20044;-82
2022/04/19 13:20:12;;;;;;;3.20;2.10;;;23.00;38.90;;;;;;5076091;28;20055;-81
2022/04/19 13:22:38;;;;;;;2.78;2.00;;;23.00;38.40;;;;;;5076272;28;20127;-81
2022/04/19 13:25:05;;;;;;;5.82;1.85;;;23.10;38.80;;;;;;5075791;28;20460;-80
2022/04/19 13:27:33;;;;;;;3.30;2.20;;;23.10;38.70;;;;;;5076116;28;20043;-80
2022/04/19 13:30:00;;;;;;;3.85;1.77;;;23.00;38.10;;;;;;5075900;28;20048;-80
2022/04/19 13:32:26;;;;;;;2.67;2.22;;;23.00;38.00;;;;;;5092811;28;20044;-80
2022/04/19 13:34:52;;;;;;;3.63;2.40;;;23.00;38.40;;;;;;5092916;28;20055;-81
2022/04/19 13:38:23;;;;;;;2.67;2.30;;;22.90;38.60;;;;;;5075823;28;20054;-79